Terminal Aerodrome Forecast
Issued by NWS

Home | Current Version | Previous Version | Text Only | Print | Product List | Glossary On
Versions: 1 2 3 4 5 6 7 8 9 10 11 12 13 14 15 16 17 18 19 20 21 22
481
FTUS43 KGRR 100702 AAA
TAFLAN
TAF AMD
KLAN 100702Z 1007/1106 26008KT P6SM -SN OVC050
     FM101400 26010KT 2SM -SN OVC025
     FM102100 23006KT P6SM OVC035=

USA.gov is the U.S. government's official web portal to all federal, state and local government web resources and services.